Terminal Aerodrome Forecast
Issued by NWS La Crosse, WI

Home | Current Version | Previous Version | Text Only | Print | Product List | Glossary On
Versions: 1 2 3 4 5 6 7 8 9 10 11 12 13 14 15 16 17 18 19 20 21 22 23 24
000
FTUS43 KARX 170032 AAA
TAFRST
TAF AMD
KRST 170032Z 1701/1724 13009KT P6SM -SHRA BKN035
      TEMPO 1700/1702 1SM +RA BR BKN008
     FM170300 17010KT P6SM VCSH BKN020
     FM170800 21010KT 5SM BR OVC008
     FM171400 26015G22KT P6SM VCSH OVC010
     FM171800 30020G28KT P6SM BKN022=

USA.gov is the U.S. government's official web portal to all federal, state and local government web resources and services.